Latest Weather Observations for Cape Naturaliste

IDW60801

Issued at 8:32 am WST Monday 31 August 2015 (issued every 30 minutes, with the page automatically refreshed every 10 minutes)

About weather observations | Map of weather stations | Latest weather observations for WA | Other Formats
Station Details ID: 009519 Name: CAPE NATURALISTE Lat: -33.54 Lon: 115.02 Height: 109.0 m
Data from the previous 72 hours. | See also: Recent months at Cape Naturaliste
Date/Time
WST
Temp
°C
App
Temp
°C
Dew
Point
Rel
Hum
%
Delta-T
°C
Wind Press
QNH
hPa
Press
MSL
hPa
Rain
since 9 am
mm
Dir
 
Spd
km/h
Gust
km/h
Spd
kts
Gust
kts
31/08:30am 13.7 7.6 9.6 76 2.1 WNW 32 48 17 26 1016.2 1016.2 0.8
31/08:00am 11.8 5.8 8.8 82 1.5 WNW 30 39 16 21 1016.3 1016.3 0.8
31/07:30am 12.0 5.8 7.7 75 2.1 NW 30 41 16 22 1016.4 1016.4 0.8
31/07:00am 12.6 6.2 6.9 68 2.7 WNW 30 41 16 22 1016.2 1016.2 0.8
31/06:30am 13.0 6.0 6.8 66 3.0 WNW 33 44 18 24 1016.3 1016.3 0.8
31/06:00am 12.7 6.6 6.5 66 3.0 WNW 28 39 15 21 1016.4 1016.4 0.8
31/05:30am 12.6 6.0 6.0 64 3.1 WNW 30 39 16 21 1016.5 1016.5 0.8
31/05:00am 12.6 6.0 6.2 65 3.0 W 30 41 16 22 1016.7 1016.7 0.8
31/04:30am 12.5 6.7 4.2 57 3.8 WNW 24 33 13 18 1017.1 1017.1 0.8
31/04:00am 12.3 5.0 4.3 58 3.6 WNW 32 41 17 22 1017.2 1017.2 0.8
31/03:30am 12.8 5.9 6.4 65 3.1 WNW 32 41 17 22 1017.4 1017.4 0.8
31/03:00am 12.3 6.8 6.1 66 2.9 WNW 24 30 13 16 1017.8 1017.8 0.8
31/02:30am 11.7 7.0 6.0 68 2.7 WNW 20 28 11 15 1018.2 1018.2 0.8
31/02:00am 11.9 6.0 6.0 67 2.8 WNW 26 35 14 19 1018.4 1018.4 0.8
31/01:30am 11.6 5.5 6.7 72 2.3 WNW 28 35 15 19 1018.7 1018.7 0.8
31/01:00am 11.3 7.0 7.0 75 2.1 W 19 26 10 14 1019.0 1018.9 0.8
31/12:30am 11.1 6.9 7.6 79 1.7 W 19 24 10 13 1019.3 1019.2 0.8
31/12:00am 10.7 6.5 7.4 80 1.6 W 19 26 10 14 1019.5 1019.4 0.8
 
Date/Time
WST
Temp
°C
App
Temp
°C
Dew
Point
Rel
Hum
%
Delta-T
°C
Wind Press
QNH
hPa
Press
MSL
hPa
Rain
since 9 am
mm
Dir
 
Spd
km/h
Gust
km/h
Spd
kts
Gust
kts
30/11:30pm 11.0 6.3 7.9 81 1.5 W 22 30 12 16 1019.8 1019.7 0.8
30/11:00pm 10.2 5.9 7.1 81 1.5 WNW 19 22 10 12 1020.0 1019.9 0.8
30/10:30pm 10.2 6.7 7.3 82 1.4 W 15 20 8 11 1020.3 1020.3 0.8
30/10:00pm 10.6 7.2 7.7 82 1.4 W 15 32 8 17 1020.7 1020.7 0.8
30/09:30pm 10.5 7.6 6.6 77 1.8 WSW 11 15 6 8 1020.8 1020.8 0.2
30/09:00pm 10.4 8.3 6.0 74 2.0 SSW 6 7 3 4 1020.8 1020.8 0.0
30/08:30pm 10.5 8.6 6.5 76 1.9 SSW 6 7 3 4 1021.0 1021.0 0.0
30/08:00pm 10.2 7.2 6.2 76 1.9 S 11 13 6 7 1020.9 1020.9 0.0
30/07:30pm 10.2 6.8 6.0 75 2.0 S 13 17 7 9 1020.7 1020.7 0.0
30/07:00pm 10.7 6.6 6.1 73 2.1 SW 17 26 9 14 1020.6 1020.6 0.0
30/06:30pm 11.3 8.3 5.8 69 2.6 SSW 11 17 6 9 1020.4 1020.4 0.0
30/06:00pm 11.2 8.3 4.9 65 2.9 SW 9 13 5 7 1020.2 1020.2 0.0
30/05:30pm 12.0 8.7 4.7 61 3.3 SW 11 15 6 8 1020.1 1020.0 0.0
30/05:00pm 13.8 10.7 5.4 57 4.0 SW 11 17 6 9 1020.0 1019.9 0.0
30/04:30pm 14.4 10.5 5.5 55 4.2 SW 15 20 8 11 1019.9 1019.8 0.0
30/04:00pm 14.1 9.9 5.7 57 4.0 SW 17 22 9 12 1019.9 1019.8 0.0
30/03:30pm 13.4 10.3 7.2 66 3.0 SSW 13 20 7 11 1019.9 1019.8 0.0
30/03:00pm 13.8 9.4 4.9 55 4.1 SW 17 22 9 12 1019.8 1019.7 0.0
30/02:30pm 14.1 9.2 4.9 54 4.3 SW 20 26 11 14 1019.7 1019.6 0.0
30/02:00pm 14.5 10.2 5.3 54 4.3 SW 17 26 9 14 1019.4 1019.3 0.0
30/01:30pm 14.8 10.0 5.6 54 4.4 SW 20 28 11 15 1019.4 1019.3 0.0
30/01:00pm 15.9 10.8 6.1 52 4.8 WSW 22 28 12 15 1019.5 1019.4 0.0
30/12:30pm 15.8 10.9 6.8 55 4.4 SW 22 32 12 17 1019.7 1019.6 0.0
30/12:00pm 15.4 10.6 7.2 58 4.1 SW 22 35 12 19 1019.8 1019.7 0.0
30/11:30am 14.2 8.8 6.3 59 3.8 SW 24 35 13 19 1020.0 1019.9 0.0
30/11:00am 15.8 10.9 6.8 55 4.4 SW 22 33 12 18 1019.9 1019.8 0.0
30/10:30am 15.1 10.2 6.9 58 4.0 SSW 22 30 12 16 1019.8 1019.7 0.0
30/10:00am 14.8 9.5 6.9 59 3.9 SSW 24 32 13 17 1019.5 1019.4 0.0
30/09:30am 14.5 8.2 5.8 56 4.2 SW 28 39 15 21 1019.3 1019.2 0.0
30/09:00am 13.8 7.3 4.9 55 4.1 SW 28 37 15 20 1018.8 1018.8 10.0
30/08:30am 13.2 6.9 5.6 60 3.6 WSW 28 35 15 19 1018.6 1018.6 10.0
30/08:00am 12.5 6.2 5.7 63 3.2 SW 28 41 15 22 1018.1 1018.1 10.0
30/07:30am 11.9 5.7 6.0 67 2.8 SW 28 39 15 21 1017.7 1017.7 10.0
30/07:00am 11.3 3.8 6.2 71 2.4 SW 35 46 19 25 1017.2 1017.2 10.0
30/06:30am 11.9 5.7 6.0 67 2.8 SW 28 41 15 22 1016.5 1016.5 9.8
30/06:00am 12.3 5.3 5.9 65 3.0 SW 32 41 17 22 1015.9 1015.9 9.8
30/05:30am 12.0 3.9 5.2 63 3.2 WSW 37 46 20 25 1015.5 1015.5 9.8
30/05:00am 12.1 4.7 6.6 69 2.6 WSW 35 44 19 24 1015.1 1015.1 9.8
30/04:30am 12.0 4.3 7.1 72 2.4 SW 37 48 20 26 1014.7 1014.7 9.8
30/04:00am 11.9 4.6 7.4 74 2.2 WSW 35 44 19 24 1014.6 1014.6 9.8
30/03:30am 11.9 4.1 8.4 79 1.7 WSW 39 52 21 28 1014.4 1014.4 9.8
30/03:00am 11.4 3.3 8.6 83 1.4 WSW 41 54 22 29 1014.2 1014.2 9.8
30/02:30am 11.5 2.9 8.2 80 1.6 SW 43 65 23 35 1014.3 1014.3 9.8
30/02:26am 12.5 4.4 8.8 78 1.9 SW 41 65 22 35 1014.1 1014.1 9.0
30/02:00am 12.5 5.5 8.6 77 2.0 WSW 35 52 19 28 1013.9 1013.9 8.8
30/01:53am 12.5 4.9 9.0 79 1.8 WSW 39 57 21 31 1013.9 1013.9 8.8
30/01:30am 11.7 4.0 8.6 81 1.5 WSW 39 54 21 29 1013.7 1013.7 8.8
30/01:14am 13.0 5.5 9.3 78 1.9 WSW 39 61 21 33 1013.5 1013.5 8.6
30/01:00am 13.4 5.5 9.3 76 2.1 WSW 41 54 22 29 1013.4 1013.4 8.6
30/12:35am 14.3 6.7 8.9 70 2.8 W 39 61 21 33 1013.0 1013.0 8.6
30/12:30am 14.3 6.6 8.7 69 2.8 W 39 50 21 27 1013.0 1013.0 8.6
30/12:00am 14.0 6.3 8.8 71 2.6 WSW 39 48 21 26 1012.9 1012.9 8.6
 
Date/Time
WST
Temp
°C
App
Temp
°C
Dew
Point
Rel
Hum
%
Delta-T
°C
Wind Press
QNH
hPa
Press
MSL
hPa
Rain
since 9 am
mm
Dir
 
Spd
km/h
Gust
km/h
Spd
kts
Gust
kts
29/11:30pm 14.6 7.4 9.0 69 2.9 WSW 37 48 20 26 1012.6 1012.6 8.6
29/11:00pm 14.8 7.5 8.7 67 3.1 W 37 50 20 27 1012.5 1012.5 8.6
29/10:30pm 14.7 8.2 10.3 75 2.3 W 35 44 19 24 1012.5 1012.5 8.6
29/10:00pm 13.9 8.0 10.3 79 1.9 W 32 44 17 24 1012.6 1012.6 8.6
29/09:30pm 15.1 9.0 9.9 71 2.7 W 32 43 17 23 1012.5 1012.5 8.6
29/09:00pm 15.1 9.1 10.1 72 2.6 WNW 32 41 17 22 1012.4 1012.3 8.6
29/08:30pm 14.5 10.6 10.7 78 2.0 WNW 22 30 12 16 1012.3 1012.2 8.6
29/08:00pm 14.8 10.3 11.4 80 1.8 WNW 26 33 14 18 1012.1 1012.0 8.6
29/07:30pm 14.4 11.2 11.4 82 1.6 WNW 19 22 10 12 1011.9 1011.8 8.6
29/07:00pm 14.0 10.8 11.2 83 1.5 W 19 22 10 12 1011.6 1011.5 8.6
29/06:30pm 14.1 10.7 11.1 82 1.6 W 20 26 11 14 1011.4 1011.3 8.6
29/06:00pm 14.6 9.2 10.8 78 2.0 WSW 30 37 16 20 1011.0 1010.9 8.6
29/05:30pm 15.1 10.5 10.9 76 2.2 W 26 32 14 17 1010.6 1010.5 8.6
29/05:00pm 15.4 10.9 11.4 77 2.2 W 26 35 14 19 1010.5 1010.4 8.6
29/04:30pm 15.7 11.8 12.1 79 2.0 W 24 32 13 17 1010.3 1010.2 8.6
29/04:00pm 16.4 12.3 12.6 78 2.1 WSW 26 32 14 17 1010.3 1010.2 8.6
29/03:30pm 16.7 12.2 12.7 77 2.2 WSW 28 33 15 18 1010.1 1010.0 8.6
29/03:00pm 17.1 12.9 13.4 79 2.1 WSW 28 39 15 21 1009.8 1009.7 8.6
29/02:30pm 16.7 12.4 13.2 80 2.0 WSW 28 35 15 19 1009.6 1009.5 8.6
29/02:00pm 16.9 11.5 13.8 82 1.8 WSW 35 43 19 23 1009.1 1009.1 8.6
29/01:30pm 17.3 12.3 15.1 87 1.3 WSW 35 46 19 25 1008.7 1008.7 8.6
29/01:00pm 16.5 10.6 14.7 89 1.0 WSW 39 50 21 27 1008.3 1008.3 8.6
29/12:30pm 17.3 11.0 15.6 90 1.0 W 43 57 23 31 1007.8 1007.8 8.6
29/12:20pm 16.8 11.5 15.2 90 0.9 WNW 37 57 20 31 1007.4 1007.4 8.4
29/12:15pm 17.0 12.1 15.3 90 1.0 WNW 35 52 19 28 1007.4 1007.4 8.4
29/12:00pm 16.0 14.6 14.4 90 0.9 NNW 15 33 8 18 1006.6 1006.6 8.0
29/11:30am 15.8 12.2 14.2 90 0.9 N 26 39 14 21 1008.4 1008.4 1.6
29/11:00am 15.5 9.3 13.7 89 1.0 N 39 48 21 26 1009.1 1009.1 1.6
29/10:30am 16.5 13.5 14.7 89 1.0 N 24 33 13 18 1009.8 1009.7 1.0
29/10:00am 16.8 13.1 15.0 89 1.0 N 28 33 15 18 1010.0 1009.9 0.4
29/09:30am 16.5 13.1 14.7 89 1.0 NNW 26 35 14 19 1010.3 1010.2 0.4
29/09:00am 16.4 11.7 14.2 87 1.3 N 32 41 17 22 1010.5 1010.4 0.2
29/08:30am 16.6 11.3 14.1 85 1.4 N 35 46 19 25 1010.7 1010.6 0.0
29/08:00am 17.0 12.2 13.9 82 1.8 N 32 43 17 23 1010.6 1010.5 0.0
29/07:30am 16.9 12.0 13.6 81 1.9 N 32 39 17 21 1010.5 1010.4 0.0
29/07:00am 16.7 11.9 13.0 79 2.1 N 30 39 16 21 1010.5 1010.4 0.0
29/06:30am 16.5 12.1 13.0 80 2.0 N 28 35 15 19 1010.5 1010.4 0.0
29/06:00am 16.2 12.5 12.6 79 2.0 NNW 24 32 13 17 1010.6 1010.5 0.0
29/05:30am 15.9 12.4 12.3 79 2.0 NNW 22 30 12 16 1010.7 1010.6 0.0
29/05:00am 15.9 12.0 12.1 78 2.1 NNW 24 30 13 16 1010.8 1010.7 0.0
29/04:30am 16.1 12.6 12.1 77 2.2 NNW 22 30 12 16 1010.9 1010.8 0.0
29/04:00am 16.2 11.9 12.0 76 2.3 NW 26 32 14 17 1011.0 1010.9 0.0
29/03:30am 16.1 12.5 11.9 76 2.3 NW 22 35 12 19 1011.2 1011.1 0.0
29/03:00am 16.2 11.9 12.0 76 2.3 NNW 26 32 14 17 1011.7 1011.6 0.0
29/02:30am 16.0 11.2 11.6 75 2.4 NW 28 33 15 18 1011.8 1011.7 0.0
29/02:00am 16.0 11.4 12.2 78 2.1 NNW 28 35 15 19 1012.1 1012.0 0.0
29/01:30am 15.3 12.9 12.8 85 1.4 N 17 30 9 16 1012.4 1012.3 0.0
29/01:00am 15.6 13.0 13.1 85 1.4 NNE 19 22 10 12 1012.8 1012.8 0.0
29/12:30am 15.4 12.6 12.7 84 1.5 NNE 19 24 10 13 1013.0 1013.0 0.0
29/12:00am 15.4 12.3 12.3 82 1.7 NNE 20 26 11 14 1013.1 1013.1 0.0
 
Date/Time
WST
Temp
°C
App
Temp
°C
Dew
Point
Rel
Hum
%
Delta-T
°C
Wind Press
QNH
hPa
Press
MSL
hPa
Rain
since 9 am
mm
Dir
 
Spd
km/h
Gust
km/h
Spd
kts
Gust
kts
28/11:30pm 15.3 12.3 12.1 81 1.7 NNE 19 22 10 12 1013.8 1013.8 0.0
28/11:00pm 14.8 11.7 11.6 81 1.7 NNE 19 22 10 12 1013.9 1013.9 0.0
28/10:30pm 13.9 11.7 10.7 81 1.7 NNE 13 17 7 9 1014.3 1014.3 0.0
28/10:00pm 13.6 11.2 10.0 79 1.9 NE 13 17 7 9 1014.5 1014.5 0.0
28/09:30pm 13.3 10.7 9.4 77 2.0 NE 13 15 7 8 1014.8 1014.8 0.0
28/09:00pm 13.9 12.4 9.3 74 2.4 NNW 7 9 4 5 1015.0 1015.0 0.0
28/08:30pm 14.0 12.1 9.2 73 2.5 NW 9 11 5 6 1014.8 1014.8 0.0
28/08:00pm 13.7 11.7 8.7 72 2.5 NW 9 11 5 6 1015.0 1015.0 0.0
28/07:30pm 13.5 11.8 8.4 71 2.6 NW 7 9 4 5 1014.9 1014.9 0.0
28/07:00pm 14.1 12.1 8.5 69 2.8 NW 9 9 5 5 1014.7 1014.7 0.0
28/06:30pm 14.8 12.6 9.2 69 2.9 NW 11 15 6 8 1014.5 1014.5 0.0
28/06:00pm 14.7 12.4 8.9 68 3.0 W 11 15 6 8 1014.3 1014.3 0.0
28/05:30pm 15.5 12.9 9.2 66 3.3 WNW 13 17 7 9 1014.3 1014.3 0.0
28/05:00pm 16.2 14.0 9.4 64 3.5 W 11 13 6 7 1014.2 1014.2 0.0
28/04:30pm 17.2 14.8 10.1 63 3.8 W 13 17 7 9 1014.1 1014.1 0.0
28/04:00pm 17.1 13.7 9.0 59 4.2 W 17 20 9 11 1014.0 1014.0 0.0
28/03:30pm 17.6 13.8 9.2 58 4.4 W 19 24 10 13 1014.0 1014.0 0.0
28/03:00pm 17.8 14.0 9.2 57 4.5 W 19 24 10 13 1013.7 1013.7 0.0
28/02:30pm 19.1 14.6 8.7 51 5.4 W 22 28 12 15 1013.7 1013.7 0.0
28/02:00pm 19.3 14.7 9.8 54 5.1 W 24 30 13 16 1013.8 1013.8 0.0
28/01:30pm 19.4 15.2 9.6 53 5.2 W 22 30 12 16 1013.8 1013.8 0.0
28/01:00pm 19.4 15.1 10.7 57 4.7 W 24 30 13 16 1014.1 1014.1 0.0
28/12:30pm 19.6 15.5 11.6 60 4.4 W 24 30 13 16 1014.4 1014.4 0.0
28/12:00pm 19.3 15.2 11.6 61 4.3 W 24 32 13 17 1014.7 1014.7 0.0
28/11:30am 19.0 14.6 11.6 62 4.1 W 26 32 14 17 1014.8 1014.8 0.0
28/11:00am 18.9 14.9 11.7 63 4.0 W 24 32 13 17 1014.8 1014.8 0.0
28/10:30am 18.6 14.3 11.9 65 3.7 W 26 32 14 17 1014.8 1014.8 0.0
28/10:00am 18.5 14.7 12.3 67 3.5 W 24 30 13 16 1014.7 1014.7 0.0
28/09:30am 17.9 14.5 12.6 71 3.0 W 22 28 12 15 1014.7 1014.7 0.0
28/09:00am 17.0 13.2 12.5 75 2.5 W 24 32 13 17 1014.6 1014.6 0.0

Other Formats:

Comma delimited format used in spreadsheet applications
http://www.bom.gov.au/fwo/IDW60801/IDW60801.94600.axf

JavaScript Object Notation format (JSON) in row-major order
http://www.bom.gov.au/fwo/IDW60801/IDW60801.94600.json